sensor_id;sensor_type;location;lat;lon;timestamp;pressure;altitude;pressure_sealevel;temperature;humidity
71384;BME280;61466;52.166;5.004;2023-01-30T00:00:27;101829.41;;;8.99;68.48
71384;BME280;61466;52.166;5.004;2023-01-30T00:02:52;101820.38;;;9.00;68.44
71384;BME280;61466;52.166;5.004;2023-01-30T00:05:17;101820.59;;;8.98;68.35
71384;BME280;61466;52.166;5.004;2023-01-30T00:07:43;101827.56;;;8.99;68.25
71384;BME280;61466;52.166;5.004;2023-01-30T00:10:09;101818.50;;;9.00;68.49
71384;BME280;61466;52.166;5.004;2023-01-30T00:12:34;101812.72;;;9.04;68.48
71384;BME280;61466;52.166;5.004;2023-01-30T00:15:00;101796.72;;;9.04;68.37
71384;BME280;61466;52.166;5.004;2023-01-30T00:17:25;101793.00;;;9.05;68.47
71384;BME280;61466;52.166;5.004;2023-01-30T00:19:50;101786.03;;;9.04;68.50
71384;BME280;61466;52.166;5.004;2023-01-30T00:22:16;101791.38;;;9.04;68.44
71384;BME280;61466;52.166;5.004;2023-01-30T00:24:41;101792.41;;;9.02;68.48
71384;BME280;61466;52.166;5.004;2023-01-30T00:27:06;101791.38;;;9.04;68.46
71384;BME280;61466;52.166;5.004;2023-01-30T00:29:32;101779.66;;;9.05;68.67
71384;BME280;61466;52.166;5.004;2023-01-30T00:31:57;101781.50;;;9.04;68.62
71384;BME280;61466;52.166;5.004;2023-01-30T00:34:22;101775.94;;;9.06;68.60
71384;BME280;61466;52.166;5.004;2023-01-30T00:36:48;101766.66;;;9.08;68.57
71384;BME280;61466;52.166;5.004;2023-01-30T00:39:13;101764.31;;;9.12;68.58
71384;BME280;61466;52.166;5.004;2023-01-30T00:41:38;101767.81;;;9.12;68.73
71384;BME280;61466;52.166;5.004;2023-01-30T00:44:22;101758.31;;;9.16;68.79
71384;BME280;61466;52.166;5.004;2023-01-30T00:47:06;101744.38;;;9.14;68.59
71384;BME280;61466;52.166;5.004;2023-01-30T00:49:34;101741.25;;;9.17;68.76
71384;BME280;61466;52.166;5.004;2023-01-30T00:52:00;101734.50;;;9.15;68.69
71384;BME280;61466;52.166;5.004;2023-01-30T00:54:25;101746.09;;;9.20;68.67
71384;BME280;61466;52.166;5.004;2023-01-30T00:56:51;101747.50;;;9.23;68.59
71384;BME280;61466;52.166;5.004;2023-01-30T00:59:16;101744.38;;;9.26;68.89
71384;BME280;61466;52.166;5.004;2023-01-30T01:01:41;101721.97;;;9.27;68.98
71384;BME280;61466;52.166;5.004;2023-01-30T01:04:07;101708.72;;;9.32;69.15
71384;BME280;61466;52.166;5.004;2023-01-30T01:06:35;101706.72;;;9.39;69.05
71384;BME280;61466;52.166;5.004;2023-01-30T01:09:01;101707.31;;;9.41;69.50
71384;BME280;61466;52.166;5.004;2023-01-30T01:11:27;101701.84;;;9.48;69.52
71384;BME280;61466;52.166;5.004;2023-01-30T01:13:53;101695.78;;;9.53;69.41
71384;BME280;61466;52.166;5.004;2023-01-30T01:16:20;101686.59;;;9.60;69.36
71384;BME280;61466;52.166;5.004;2023-01-30T01:18:46;101684.41;;;9.57;69.53
71384;BME280;61466;52.166;5.004;2023-01-30T01:21:11;101687.19;;;9.62;69.41
71384;BME280;61466;52.166;5.004;2023-01-30T01:23:38;101681.13;;;9.67;69.42
71384;BME280;61466;52.166;5.004;2023-01-30T01:26:03;101691.81;;;9.67;69.45
71384;BME280;61466;52.166;5.004;2023-01-30T01:28:29;101686.00;;;9.70;69.46
71384;BME280;61466;52.166;5.004;2023-01-30T01:30:54;101680.41;;;9.72;69.37
71384;BME280;61466;52.166;5.004;2023-01-30T01:33:20;101667.31;;;9.70;69.41
71384;BME280;61466;52.166;5.004;2023-01-30T01:35:45;101667.03;;;9.72;69.32
71384;BME280;61466;52.166;5.004;2023-01-30T01:38:12;101671.19;;;9.79;69.19
71384;BME280;61466;52.166;5.004;2023-01-30T01:40:37;101676.56;;;9.79;69.25
71384;BME280;61466;52.166;5.004;2023-01-30T01:43:23;101677.34;;;9.80;69.37
71384;BME280;61466;52.166;5.004;2023-01-30T01:45:53;101667.16;;;9.77;69.14
71384;BME280;61466;52.166;5.004;2023-01-30T01:48:28;101672.00;;;9.80;69.38
71384;BME280;61466;52.166;5.004;2023-01-30T01:50:58;101685.13;;;9.81;69.35
71384;BME280;61466;52.166;5.004;2023-01-30T01:53:29;101674.69;;;9.80;69.47
71384;BME280;61466;52.166;5.004;2023-01-30T01:55:57;101674.91;;;9.78;69.42
71384;BME280;61466;52.166;5.004;2023-01-30T01:58:47;101673.66;;;9.81;69.62
71384;BME280;61466;52.166;5.004;2023-01-30T02:01:14;101667.00;;;9.83;69.57
71384;BME280;61466;52.166;5.004;2023-01-30T02:03:44;101656.78;;;9.80;69.70
71384;BME280;61466;52.166;5.004;2023-01-30T02:06:11;101672.81;;;9.80;69.84
71384;BME280;61466;52.166;5.004;2023-01-30T02:08:41;101672.00;;;9.80;69.85
71384;BME280;61466;52.166;5.004;2023-01-30T02:11:11;101678.41;;;9.79;69.85
71384;BME280;61466;52.166;5.004;2023-01-30T02:13:38;101679.22;;;9.79;69.86
71384;BME280;61466;52.166;5.004;2023-01-30T02:16:06;101671.09;;;9.74;70.12
71384;BME280;61466;52.166;5.004;2023-01-30T02:18:33;101664.72;;;9.75;70.15
71384;BME280;61466;52.166;5.004;2023-01-30T02:29:26;101662.28;;;9.74;70.42
71384;BME280;61466;52.166;5.004;2023-01-30T02:34:54;101656.03;;;9.68;70.88
71384;BME280;61466;52.166;5.004;2023-01-30T02:40:17;101655.47;;;9.66;70.90
71384;BME280;61466;52.166;5.004;2023-01-30T02:43:03;101653.03;;;9.64;70.83
71384;BME280;61466;52.166;5.004;2023-01-30T02:45:45;101651.72;;;9.67;70.80
71384;BME280;61466;52.166;5.004;2023-01-30T02:48:16;101647.91;;;9.63;70.88
71384;BME280;61466;52.166;5.004;2023-01-30T02:50:52;101653.03;;;9.64;70.94
71384;BME280;61466;52.166;5.004;2023-01-30T02:53:21;101642.56;;;9.63;70.92
71384;BME280;61466;52.166;5.004;2023-01-30T02:55:46;101639.66;;;9.64;70.88
71384;BME280;61466;52.166;5.004;2023-01-30T02:58:12;101646.38;;;9.67;70.96
71384;BME280;61466;52.166;5.004;2023-01-30T03:00:52;101642.69;;;9.68;70.91
71384;BME280;61466;52.166;5.004;2023-01-30T03:08:50;101628.03;;;9.71;70.85
71384;BME280;61466;52.166;5.004;2023-01-30T03:11:18;101635.25;;;9.70;70.98
71384;BME280;61466;52.166;5.004;2023-01-30T03:18:40;101616.53;;;9.70;71.00
71384;BME280;61466;52.166;5.004;2023-01-30T03:21:06;101616.28;;;9.72;70.91
71384;BME280;61466;52.166;5.004;2023-01-30T03:23:32;101624.88;;;9.74;70.91
71384;BME280;61466;52.166;5.004;2023-01-30T03:25:57;101619.06;;;9.77;70.85
71384;BME280;61466;52.166;5.004;2023-01-30T03:28:24;101613.94;;;9.75;70.81
71384;BME280;61466;52.166;5.004;2023-01-30T03:30:50;101627.06;;;9.77;70.89
71384;BME280;61466;52.166;5.004;2023-01-30T03:33:15;101623.56;;;9.76;71.15
71384;BME280;61466;52.166;5.004;2023-01-30T03:35:41;101616.84;;;9.74;70.85
71384;BME280;61466;52.166;5.004;2023-01-30T03:38:07;101617.19;;;9.77;70.86
71384;BME280;61466;52.166;5.004;2023-01-30T03:40:33;101614.28;;;9.79;70.79
71384;BME280;61466;52.166;5.004;2023-01-30T03:42:58;101623.09;;;9.79;70.82
71384;BME280;61466;52.166;5.004;2023-01-30T03:45:24;101619.63;;;9.79;70.78
71384;BME280;61466;52.166;5.004;2023-01-30T03:47:49;101611.63;;;9.79;70.52
71384;BME280;61466;52.166;5.004;2023-01-30T03:50:14;101610.31;;;9.81;70.58
71384;BME280;61466;52.166;5.004;2023-01-30T03:52:40;101612.50;;;9.84;70.65
71384;BME280;61466;52.166;5.004;2023-01-30T03:55:05;101610.41;;;9.87;70.45
71384;BME280;61466;52.166;5.004;2023-01-30T03:57:31;101599.41;;;9.83;70.74
71384;BME280;61466;52.166;5.004;2023-01-30T03:59:56;101621.88;;;9.87;70.70
71384;BME280;61466;52.166;5.004;2023-01-30T04:02:22;101613.63;;;9.89;70.33
71384;BME280;61466;52.166;5.004;2023-01-30T04:04:50;101599.72;;;9.87;70.63
71384;BME280;61466;52.166;5.004;2023-01-30T04:07:16;101609.38;;;9.88;70.45
71384;BME280;61466;52.166;5.004;2023-01-30T04:09:42;101607.16;;;9.84;70.69
71384;BME280;61466;52.166;5.004;2023-01-30T04:12:07;101604.81;;;9.88;70.63
71384;BME280;61466;52.166;5.004;2023-01-30T04:14:32;101597.38;;;9.90;70.32
71384;BME280;61466;52.166;5.004;2023-01-30T04:16:58;101617.69;;;9.91;70.30
71384;BME280;61466;52.166;5.004;2023-01-30T04:19:23;101622.81;;;9.93;70.20
71384;BME280;61466;52.166;5.004;2023-01-30T04:21:49;101636.66;;;9.90;70.11
71384;BME280;61466;52.166;5.004;2023-01-30T04:24:14;101625.41;;;9.88;69.96
71384;BME280;61466;52.166;5.004;2023-01-30T04:26:39;101621.59;;;9.83;70.16
71384;BME280;61466;52.166;5.004;2023-01-30T04:29:05;101628.53;;;9.84;69.45
71384;BME280;61466;52.166;5.004;2023-01-30T04:31:30;101619.38;;;9.80;69.44
71384;BME280;61466;52.166;5.004;2023-01-30T04:33:56;101635.91;;;9.77;69.75
71384;BME280;61466;52.166;5.004;2023-01-30T04:36:21;101628.34;;;9.74;69.74
71384;BME280;61466;52.166;5.004;2023-01-30T04:38:47;101638.59;;;9.66;69.82
71384;BME280;61466;52.166;5.004;2023-01-30T04:41:12;101643.84;;;9.72;69.53
71384;BME280;61466;52.166;5.004;2023-01-30T04:43:38;101644.78;;;9.66;69.42
71384;BME280;61466;52.166;5.004;2023-01-30T04:46:04;101639.44;;;9.66;68.93
71384;BME280;61466;52.166;5.004;2023-01-30T04:48:30;101647.75;;;9.70;68.94
71384;BME280;61466;52.166;5.004;2023-01-30T04:50:56;101642.75;;;9.73;68.42
71384;BME280;61466;52.166;5.004;2023-01-30T04:53:22;101635.91;;;9.77;68.42
71384;BME280;61466;52.166;5.004;2023-01-30T04:55:48;101633.69;;;9.74;68.31
71384;BME280;61466;52.166;5.004;2023-01-30T04:58:14;101646.50;;;9.72;68.13
71384;BME280;61466;52.166;5.004;2023-01-30T05:00:40;101627.66;;;9.79;67.70
71384;BME280;61466;52.166;5.004;2023-01-30T05:03:05;101636.09;;;9.88;67.42
71384;BME280;61466;52.166;5.004;2023-01-30T05:05:31;101635.03;;;9.89;67.31
71384;BME280;61466;52.166;5.004;2023-01-30T05:07:57;101627.00;;;9.89;67.27
71384;BME280;61466;52.166;5.004;2023-01-30T05:10:22;101640.47;;;9.94;67.17
71384;BME280;61466;52.166;5.004;2023-01-30T05:12:47;101637.69;;;9.89;67.06
71384;BME280;61466;52.166;5.004;2023-01-30T05:15:13;101644.09;;;9.88;67.08
71384;BME280;61466;52.166;5.004;2023-01-30T05:17:39;101643.84;;;9.89;66.83
71384;BME280;61466;52.166;5.004;2023-01-30T05:20:08;101652.00;;;9.82;66.94
71384;BME280;61466;52.166;5.004;2023-01-30T05:22:34;101627.66;;;9.79;66.90
71384;BME280;61466;52.166;5.004;2023-01-30T05:24:59;101631.53;;;9.88;66.42
71384;BME280;61466;52.166;5.004;2023-01-30T05:27:25;101649.34;;;9.82;66.44
71384;BME280;61466;52.166;5.004;2023-01-30T05:29:50;101655.63;;;9.76;66.43
71384;BME280;61466;52.166;5.004;2023-01-30T05:32:17;101667.16;;;9.77;65.93
71384;BME280;61466;52.166;5.004;2023-01-30T05:34:43;101661.59;;;9.67;66.13
71384;BME280;61466;52.166;5.004;2023-01-30T05:37:09;101663.94;;;9.63;66.19
71384;BME280;61466;52.166;5.004;2023-01-30T05:39:35;101669.06;;;9.53;66.14
71384;BME280;61466;52.166;5.004;2023-01-30T05:42:02;101680.81;;;9.52;65.96
71384;BME280;61466;52.166;5.004;2023-01-30T05:44:27;101672.72;;;9.47;65.91
71384;BME280;61466;52.166;5.004;2023-01-30T05:46:52;101674.81;;;9.45;65.83
71384;BME280;61466;52.166;5.004;2023-01-30T05:49:18;101671.00;;;9.40;65.69
71384;BME280;61466;52.166;5.004;2023-01-30T05:51:43;101677.84;;;9.36;65.60
71384;BME280;61466;52.166;5.004;2023-01-30T05:54:09;101684.47;;;9.34;65.45
71384;BME280;61466;52.166;5.004;2023-01-30T05:56:34;101678.78;;;9.30;65.72
71384;BME280;61466;52.166;5.004;2023-01-30T05:59:00;101664.53;;;9.13;65.47
71384;BME280;61466;52.166;5.004;2023-01-30T06:01:27;101676.16;;;9.18;65.60
71384;BME280;61466;52.166;5.004;2023-01-30T06:03:53;101681.72;;;9.17;65.52
71384;BME280;61466;52.166;5.004;2023-01-30T06:06:18;101673.00;;;9.10;65.38
71384;BME280;61466;52.166;5.004;2023-01-30T06:08:44;101664.88;;;9.05;65.13
71384;BME280;61466;52.166;5.004;2023-01-30T06:11:12;101665.13;;;8.91;64.66
71384;BME280;61466;52.166;5.004;2023-01-30T06:13:38;101676.97;;;8.95;64.87
71384;BME280;61466;52.166;5.004;2023-01-30T06:16:08;101681.72;;;8.93;64.91
71384;BME280;61466;52.166;5.004;2023-01-30T06:18:35;101687.06;;;8.93;64.90
71384;BME280;61466;52.166;5.004;2023-01-30T06:21:00;101694.94;;;8.88;64.48
71384;BME280;61466;52.166;5.004;2023-01-30T06:23:26;101700.97;;;8.84;64.64
71384;BME280;61466;52.166;5.004;2023-01-30T06:25:52;101694.81;;;8.83;64.74
71384;BME280;61466;52.166;5.004;2023-01-30T06:28:19;101702.25;;;8.81;64.67
71384;BME280;61466;52.166;5.004;2023-01-30T06:30:44;101696.22;;;8.74;64.78
71384;BME280;61466;52.166;5.004;2023-01-30T06:33:10;101695.06;;;8.70;64.62
71384;BME280;61466;52.166;5.004;2023-01-30T06:35:39;101693.09;;;8.65;64.64
71384;BME280;61466;52.166;5.004;2023-01-30T06:38:05;101699.22;;;8.66;64.32
71384;BME280;61466;52.166;5.004;2023-01-30T06:40:33;101698.53;;;8.58;64.31
71384;BME280;61466;52.166;5.004;2023-01-30T06:42:59;101696.66;;;8.59;64.34
71384;BME280;61466;52.166;5.004;2023-01-30T06:45:24;101689.94;;;8.56;64.12
71384;BME280;61466;52.166;5.004;2023-01-30T06:47:54;101702.56;;;8.49;64.34
71384;BME280;61466;52.166;5.004;2023-01-30T06:50:22;101704.19;;;8.50;63.93
71384;BME280;61466;52.166;5.004;2023-01-30T06:52:49;101706.63;;;8.52;63.84
71384;BME280;61466;52.166;5.004;2023-01-30T06:55:16;101709.31;;;8.52;63.50
71384;BME280;61466;52.166;5.004;2023-01-30T06:57:43;101707.06;;;8.49;62.99
71384;BME280;61466;52.166;5.004;2023-01-30T07:00:11;101716.47;;;8.51;63.15
71384;BME280;61466;52.166;5.004;2023-01-30T07:02:38;101713.09;;;8.44;62.83
71384;BME280;61466;52.166;5.004;2023-01-30T07:05:05;101707.78;;;8.44;62.68
71384;BME280;61466;52.166;5.004;2023-01-30T07:07:31;101724.34;;;8.46;62.63
71384;BME280;61466;52.166;5.004;2023-01-30T07:09:57;101705.69;;;8.46;62.35
71384;BME280;61466;52.166;5.004;2023-01-30T07:12:24;101730.72;;;8.45;62.17
71384;BME280;61466;52.166;5.004;2023-01-30T07:14:52;101726.72;;;8.36;61.81
71384;BME280;61466;52.166;5.004;2023-01-30T07:17:21;101742.28;;;8.39;61.60
71384;BME280;61466;52.166;5.004;2023-01-30T07:19:47;101744.94;;;8.39;61.87
71384;BME280;61466;52.166;5.004;2023-01-30T07:22:13;101750.72;;;8.36;61.73
71384;BME280;61466;52.166;5.004;2023-01-30T07:24:38;101749.44;;;8.38;61.56
71384;BME280;61466;52.166;5.004;2023-01-30T07:27:10;101743.69;;;8.42;61.53
71384;BME280;61466;52.166;5.004;2023-01-30T07:29:36;101726.50;;;8.37;61.46
71384;BME280;61466;52.166;5.004;2023-01-30T07:32:02;101740.06;;;8.36;61.44
71384;BME280;61466;52.166;5.004;2023-01-30T07:34:27;101743.41;;;8.31;61.33
71384;BME280;61466;52.166;5.004;2023-01-30T07:36:53;101749.69;;;8.37;61.21
71384;BME280;61466;52.166;5.004;2023-01-30T07:39:18;101734.94;;;8.34;61.22
71384;BME280;61466;52.166;5.004;2023-01-30T07:41:43;101748.41;;;8.39;61.19
71384;BME280;61466;52.166;5.004;2023-01-30T07:44:09;101764.41;;;8.39;61.20
71384;BME280;61466;52.166;5.004;2023-01-30T07:46:34;101743.09;;;8.39;61.17
71384;BME280;61466;52.166;5.004;2023-01-30T07:49:00;101757.38;;;8.45;61.09
71384;BME280;61466;52.166;5.004;2023-01-30T07:51:26;101739.19;;;8.42;61.44
71384;BME280;61466;52.166;5.004;2023-01-30T07:53:52;101741.63;;;8.44;61.21
71384;BME280;61466;52.166;5.004;2023-01-30T07:56:17;101755.28;;;8.47;61.28
71384;BME280;61466;52.166;5.004;2023-01-30T07:58:45;101752.88;;;8.46;61.20
71384;BME280;61466;52.166;5.004;2023-01-30T08:01:10;101754.84;;;8.50;61.34
71384;BME280;61466;52.166;5.004;2023-01-30T08:03:36;101768.53;;;8.54;61.39
71384;BME280;61466;52.166;5.004;2023-01-30T08:06:01;101765.53;;;8.50;61.41
71384;BME280;61466;52.166;5.004;2023-01-30T08:08:26;101751.72;;;8.53;60.96
71384;BME280;61466;52.166;5.004;2023-01-30T08:10:52;101763.47;;;8.64;61.05
71384;BME280;61466;52.166;5.004;2023-01-30T08:13:17;101750.50;;;8.68;61.30
71384;BME280;61466;52.166;5.004;2023-01-30T08:15:42;101763.81;;;8.68;61.31
71384;BME280;61466;52.166;5.004;2023-01-30T08:18:08;101769.75;;;8.70;61.40
71384;BME280;61466;52.166;5.004;2023-01-30T08:20:35;101772.31;;;8.76;61.18
71384;BME280;61466;52.166;5.004;2023-01-30T08:23:00;101758.06;;;8.82;60.89
71384;BME280;61466;52.166;5.004;2023-01-30T08:25:26;101775.91;;;8.82;60.55
71384;BME280;61466;52.166;5.004;2023-01-30T08:27:52;101766.63;;;8.96;60.35
71384;BME280;61466;52.166;5.004;2023-01-30T08:30:19;101770.47;;;9.00;60.23
71384;BME280;61466;52.166;5.004;2023-01-30T08:32:44;101786.50;;;9.12;60.11
71384;BME280;61466;52.166;5.004;2023-01-30T08:35:10;101782.44;;;9.10;59.90
71384;BME280;61466;52.166;5.004;2023-01-30T08:37:35;101789.75;;;9.14;59.64
71384;BME280;61466;52.166;5.004;2023-01-30T08:40:02;101796.16;;;9.25;59.95
71384;BME280;61466;52.166;5.004;2023-01-30T08:42:28;101799.41;;;9.27;59.83
71384;BME280;61466;52.166;5.004;2023-01-30T08:44:53;101814.13;;;9.30;59.43
71384;BME280;61466;52.166;5.004;2023-01-30T08:47:18;101829.56;;;9.39;59.45
71384;BME280;61466;52.166;5.004;2023-01-30T08:49:44;101830.28;;;9.35;59.22
71384;BME280;61466;52.166;5.004;2023-01-30T08:52:09;101835.50;;;9.41;59.20
71384;BME280;61466;52.166;5.004;2023-01-30T08:54:35;101820.06;;;9.43;59.08
71384;BME280;61466;52.166;5.004;2023-01-30T08:57:00;101825.41;;;9.43;59.25
71384;BME280;61466;52.166;5.004;2023-01-30T08:59:25;101836.66;;;9.46;59.11
71384;BME280;61466;52.166;5.004;2023-01-30T09:01:51;101834.56;;;9.48;59.23
71384;BME280;61466;52.166;5.004;2023-01-30T09:04:16;101833.28;;;9.50;59.25
71384;BME280;61466;52.166;5.004;2023-01-30T09:06:41;101826.78;;;9.46;59.16
71384;BME280;61466;52.166;5.004;2023-01-30T09:09:07;101831.69;;;9.49;58.95
71384;BME280;61466;52.166;5.004;2023-01-30T09:11:32;101832.00;;;9.53;59.07
71384;BME280;61466;52.166;5.004;2023-01-30T09:13:58;101848.25;;;9.63;58.85
71384;BME280;61466;52.166;5.004;2023-01-30T09:16:23;101838.38;;;9.63;59.00
71384;BME280;61466;52.166;5.004;2023-01-30T09:18:48;101847.22;;;9.64;58.65
71384;BME280;61466;52.166;5.004;2023-01-30T09:21:14;101842.78;;;9.70;58.54
71384;BME280;61466;52.166;5.004;2023-01-30T09:23:39;101852.78;;;9.74;58.42
71384;BME280;61466;52.166;5.004;2023-01-30T09:26:05;101853.03;;;9.73;58.30
71384;BME280;61466;52.166;5.004;2023-01-30T09:28:31;101858.13;;;9.74;58.26
71384;BME280;61466;52.166;5.004;2023-01-30T09:30:58;101853.72;;;9.80;57.55
71384;BME280;61466;52.166;5.004;2023-01-30T09:33:23;101838.84;;;9.84;57.94
71384;BME280;61466;52.166;5.004;2023-01-30T09:35:50;101846.72;;;9.91;57.94
71384;BME280;61466;52.166;5.004;2023-01-30T09:38:16;101852.44;;;9.94;57.91
71384;BME280;61466;52.166;5.004;2023-01-30T09:43:32;101871.22;;;9.99;57.58
71384;BME280;61466;52.166;5.004;2023-01-30T09:48:52;101864.59;;;10.02;57.49
71384;BME280;61466;52.166;5.004;2023-01-30T09:51:28;101882.25;;;10.15;57.47
71384;BME280;61466;52.166;5.004;2023-01-30T09:56:28;101902.25;;;10.12;57.37
71384;BME280;61466;52.166;5.004;2023-01-30T09:58:56;101893.06;;;10.08;57.03
71384;BME280;61466;52.166;5.004;2023-01-30T10:04:39;101910.75;;;10.09;57.10
71384;BME280;61466;52.166;5.004;2023-01-30T10:07:48;101910.28;;;10.12;57.16
71384;BME280;61466;52.166;5.004;2023-01-30T10:10:45;101905.13;;;10.22;57.21
71384;BME280;61466;52.166;5.004;2023-01-30T10:21:32;101906.06;;;10.16;57.12
71384;BME280;61466;52.166;5.004;2023-01-30T10:24:22;101925.13;;;10.32;57.05
71384;BME280;61466;52.166;5.004;2023-01-30T10:26:51;101917.44;;;10.23;56.95
71384;BME280;61466;52.166;5.004;2023-01-30T10:29:26;101922.47;;;10.32;56.75
71384;BME280;61466;52.166;5.004;2023-01-30T10:32:04;101923.28;;;10.32;56.71
71384;BME280;61466;52.166;5.004;2023-01-30T10:34:37;101921.53;;;10.38;56.71
71384;BME280;61466;52.166;5.004;2023-01-30T10:39:44;101938.16;;;10.40;56.42
71384;BME280;61466;52.166;5.004;2023-01-30T10:42:17;101930.94;;;10.40;56.18
71384;BME280;61466;52.166;5.004;2023-01-30T10:44:46;101941.84;;;10.39;55.99
71384;BME280;61466;52.166;5.004;2023-01-30T10:50:20;101956.53;;;10.24;55.93
71384;BME280;61466;52.166;5.004;2023-01-30T10:53:10;101949.78;;;10.34;56.11
71384;BME280;61466;52.166;5.004;2023-01-30T10:55:45;101951.06;;;10.31;55.81
71384;BME280;61466;52.166;5.004;2023-01-30T11:03:14;101948.50;;;10.36;55.86
71384;BME280;61466;52.166;5.004;2023-01-30T11:05:52;101941.19;;;10.43;56.01
71384;BME280;61466;52.166;5.004;2023-01-30T11:08:29;101925.34;;;10.42;55.60
71384;BME280;61466;52.166;5.004;2023-01-30T11:10:56;101937.06;;;10.53;55.79
71384;BME280;61466;52.166;5.004;2023-01-30T11:13:32;101925.28;;;10.65;55.81
71384;BME280;61466;52.166;5.004;2023-01-30T11:16:02;101918.88;;;10.66;55.81
71384;BME280;61466;52.166;5.004;2023-01-30T11:18:29;101909.69;;;10.62;55.43
71384;BME280;61466;52.166;5.004;2023-01-30T11:21:02;101932.78;;;10.80;55.44
71384;BME280;61466;52.166;5.004;2023-01-30T11:23:41;101934.66;;;10.80;55.24
71384;BME280;61466;52.166;5.004;2023-01-30T11:26:18;101943.50;;;10.80;55.02
71384;BME280;61466;52.166;5.004;2023-01-30T11:28:44;101924.53;;;10.82;54.89
71384;BME280;61466;52.166;5.004;2023-01-30T11:31:21;101928.09;;;10.88;55.09
71384;BME280;61466;52.166;5.004;2023-01-30T11:34:04;101930.53;;;10.89;54.95
71384;BME280;61466;52.166;5.004;2023-01-30T11:36:34;101946.31;;;11.02;54.92
71384;BME280;61466;52.166;5.004;2023-01-30T11:39:03;101934.69;;;10.97;54.56
71384;BME280;61466;52.166;5.004;2023-01-30T11:41:29;101943.88;;;11.01;54.34
71384;BME280;61466;52.166;5.004;2023-01-30T11:44:03;101931.88;;;11.03;54.29
71384;BME280;61466;52.166;5.004;2023-01-30T11:46:34;101943.41;;;11.04;53.80
71384;BME280;61466;52.166;5.004;2023-01-30T11:49:04;101932.03;;;11.14;53.89
71384;BME280;61466;52.166;5.004;2023-01-30T11:51:34;101932.44;;;11.05;54.25
71384;BME280;61466;52.166;5.004;2023-01-30T11:54:03;101931.88;;;11.20;53.77
71384;BME280;61466;52.166;5.004;2023-01-30T11:56:37;101932.00;;;11.25;53.96
71384;BME280;61466;52.166;5.004;2023-01-30T12:01:37;101943.13;;;11.34;53.81
71384;BME280;61466;52.166;5.004;2023-01-30T12:04:05;101951.31;;;11.27;53.49
71384;BME280;61466;52.166;5.004;2023-01-30T12:06:35;101943.44;;;11.21;53.61
71384;BME280;61466;52.166;5.004;2023-01-30T12:09:02;101940.84;;;11.26;53.68
71384;BME280;61466;52.166;5.004;2023-01-30T12:11:48;101940.50;;;11.22;53.68
71384;BME280;61466;52.166;5.004;2023-01-30T12:17:19;101948.88;;;11.26;53.60
71384;BME280;61466;52.166;5.004;2023-01-30T12:22:40;101966.72;;;11.37;54.00
71384;BME280;61466;52.166;5.004;2023-01-30T12:25:18;101973.34;;;11.46;53.75
71384;BME280;61466;52.166;5.004;2023-01-30T12:28:01;101960.34;;;11.38;53.55
71384;BME280;61466;52.166;5.004;2023-01-30T12:30:42;101952.59;;;11.42;53.33
71384;BME280;61466;52.166;5.004;2023-01-30T12:33:12;101956.19;;;11.47;53.55
71384;BME280;61466;52.166;5.004;2023-01-30T12:35:46;101956.69;;;11.44;53.60
71384;BME280;61466;52.166;5.004;2023-01-30T12:38:27;101963.72;;;11.51;53.44
71384;BME280;61466;52.166;5.004;2023-01-30T12:43:55;101966.50;;;11.56;53.17
71384;BME280;61466;52.166;5.004;2023-01-30T12:57:26;101981.09;;;11.31;53.37
71384;BME280;61466;52.166;5.004;2023-01-30T13:02:51;101978.00;;;11.22;53.45
71384;BME280;61466;52.166;5.004;2023-01-30T13:05:34;101982.06;;;11.25;53.77
71384;BME280;61466;52.166;5.004;2023-01-30T13:08:48;101989.19;;;11.19;53.79
71384;BME280;61466;52.166;5.004;2023-01-30T13:11:22;101990.19;;;11.30;54.14
71384;BME280;61466;52.166;5.004;2023-01-30T13:19:11;102000.13;;;11.18;54.11
71384;BME280;61466;52.166;5.004;2023-01-30T13:21:43;102000.38;;;11.16;54.18
71384;BME280;61466;52.166;5.004;2023-01-30T13:26:59;102017.75;;;11.14;54.11
71384;BME280;61466;52.166;5.004;2023-01-30T13:29:35;102002.91;;;10.94;54.19
71384;BME280;61466;52.166;5.004;2023-01-30T13:32:04;102028.59;;;11.07;54.18
71384;BME280;61466;52.166;5.004;2023-01-30T13:34:34;102021.84;;;11.04;54.05
71384;BME280;61466;52.166;5.004;2023-01-30T13:37:12;102035.47;;;11.03;54.17
71384;BME280;61466;52.166;5.004;2023-01-30T13:39:49;102033.75;;;10.97;54.04
71384;BME280;61466;52.166;5.004;2023-01-30T13:42:20;102042.13;;;11.00;54.23
71384;BME280;61466;52.166;5.004;2023-01-30T13:44:50;102038.78;;;10.93;54.08
71384;BME280;61466;52.166;5.004;2023-01-30T13:58:49;102066.00;;;11.02;53.87
71384;BME280;61466;52.166;5.004;2023-01-30T14:01:18;102050.38;;;10.99;53.85
71384;BME280;61466;52.166;5.004;2023-01-30T14:03:45;102071.78;;;11.11;53.87
71384;BME280;61466;52.166;5.004;2023-01-30T14:06:34;102073.41;;;11.12;53.85
71384;BME280;61466;52.166;5.004;2023-01-30T14:09:02;102068.88;;;11.12;54.17
71384;BME280;61466;52.166;5.004;2023-01-30T14:12:14;102073.59;;;11.22;53.96
71384;BME280;61466;52.166;5.004;2023-01-30T14:14:41;102083.50;;;11.21;53.96
71384;BME280;61466;52.166;5.004;2023-01-30T14:17:20;102091.41;;;11.28;53.88
71384;BME280;61466;52.166;5.004;2023-01-30T14:20:10;102105.50;;;11.23;53.96
71384;BME280;61466;52.166;5.004;2023-01-30T14:35:45;102142.13;;;10.94;54.17
71384;BME280;61466;52.166;5.004;2023-01-30T14:38:20;102137.56;;;10.95;54.11
71384;BME280;61466;52.166;5.004;2023-01-30T14:45:56;102155.28;;;10.96;54.19
71384;BME280;61466;52.166;5.004;2023-01-30T14:53:58;102171.91;;;10.86;54.01
71384;BME280;61466;52.166;5.004;2023-01-30T14:59:18;102185.44;;;10.79;54.20
71384;BME280;61466;52.166;5.004;2023-01-30T15:04:32;102209.19;;;10.76;54.12
71384;BME280;61466;52.166;5.004;2023-01-30T15:07:07;102208.59;;;10.74;54.15
71384;BME280;61466;52.166;5.004;2023-01-30T15:09:36;102221.50;;;10.77;54.24
71384;BME280;61466;52.166;5.004;2023-01-30T15:15:15;102214.28;;;10.77;54.50
71384;BME280;61466;52.166;5.004;2023-01-30T15:20:29;102203.13;;;10.80;54.57